Time;durP1;ratioP1;P1;durP2;ratioP2;P2;SDS_P1;SDS_P2;PMS_P1;PMS_P2;Temp;Humidity;BMP_temperature;BMP_pressure;BME280_temperature;BME280_humidity;BME280_pressure;Samples;Min_cycle;Max_cycle;Signal;HPM_P1;HPM_P2
2022/10/13 00:01:57;;;;;;;41.50;25.68;;;;;;;3.04;100.00;99715.70;2257080;79;21005;-85
2022/10/13 00:04:58;;;;;;;47.10;26.97;;;;;;;3.06;100.00;99723.70;2257270;79;21580;-86
2022/10/13 00:07:59;;;;;;;46.18;27.42;;;;;;;3.08;100.00;99728.30;2257081;79;21013;-85
2022/10/13 00:10:59;;;;;;;45.05;26.50;;;;;;;3.13;100.00;99721.06;2257165;79;20946;-85
2022/10/13 00:14:00;;;;;;;47.30;27.52;;;;;;;3.09;100.00;99727.83;2257107;78;21013;-86
2022/10/13 00:17:01;;;;;;;39.42;24.35;;;;;;;3.02;100.00;99723.58;2257212;79;21007;-85
2022/10/13 00:20:01;;;;;;;46.37;25.05;;;;;;;2.97;100.00;99728.23;2257054;79;21061;-86
2022/10/13 00:23:02;;;;;;;40.03;25.43;;;;;;;2.91;100.00;99726.06;2257269;79;20970;-86
2022/10/13 00:26:03;;;;;;;45.73;26.10;;;;;;;2.89;100.00;99723.23;2233785;80;21066;-83
2022/10/13 00:29:04;;;;;;;45.23;24.67;;;;;;;2.85;100.00;99720.03;2235689;80;21010;-82
2022/10/13 00:32:04;;;;;;;46.15;26.55;;;;;;;2.80;100.00;99720.34;2234489;80;21022;-85
2022/10/13 00:35:05;;;;;;;46.30;26.10;;;;;;;2.72;100.00;99712.74;2232924;80;20990;-85
2022/10/13 00:38:07;;;;;;;47.88;26.35;;;;;;;2.63;100.00;99715.96;2232442;80;21046;-85
2022/10/13 00:41:07;;;;;;;51.28;26.37;;;;;;;2.55;100.00;99713.89;2232362;80;20963;-85
2022/10/13 00:44:08;;;;;;;41.42;24.75;;;;;;;2.45;100.00;99718.86;2232521;80;21439;-85
2022/10/13 00:47:09;;;;;;;41.37;24.85;;;;;;;2.41;100.00;99715.31;2232650;80;21544;-85
2022/10/13 00:50:10;;;;;;;44.35;24.82;;;;;;;2.36;100.00;99711.72;2232413;80;21034;-85
2022/10/13 00:53:10;;;;;;;40.12;23.92;;;;;;;2.35;100.00;99706.66;2232574;80;22049;-84
2022/10/13 00:56:11;;;;;;;45.48;25.40;;;;;;;2.32;100.00;99709.00;2234596;80;21458;-84
2022/10/13 00:59:12;;;;;;;40.23;24.63;;;;;;;2.29;100.00;99709.21;2234288;80;21004;-83
2022/10/13 01:02:13;;;;;;;41.40;23.67;;;;;;;2.30;100.00;99710.04;2233452;80;21058;-86
2022/10/13 01:05:14;;;;;;;37.58;24.50;;;;;;;2.27;100.00;99706.70;2232440;80;21474;-86
2022/10/13 01:08:15;;;;;;;41.25;22.67;;;;;;;2.23;100.00;99708.32;2232016;80;20991;-85
2022/10/13 01:11:16;;;;;;;41.83;24.12;;;;;;;2.20;100.00;99702.90;2232574;80;21010;-85
2022/10/13 01:14:16;;;;;;;37.38;22.75;;;;;;;2.19;100.00;99707.67;2232348;80;20987;-85
2022/10/13 01:17:17;;;;;;;38.38;23.52;;;;;;;2.18;100.00;99703.91;2232674;80;21011;-85
2022/10/13 01:20:18;;;;;;;44.42;23.77;;;;;;;2.13;100.00;99698.23;2232394;78;20998;-85
2022/10/13 01:23:18;;;;;;;40.43;24.70;;;;;;;2.11;100.00;99696.23;2232551;80;21066;-86
2022/10/13 01:26:19;;;;;;;40.35;23.83;;;;;;;2.08;100.00;99692.07;2258731;79;21014;-82
2022/10/13 01:29:20;;;;;;;40.90;24.07;;;;;;;2.06;100.00;99689.23;2260249;78;21004;-82
2022/10/13 01:32:21;;;;;;;54.65;25.82;;;;;;;2.03;100.00;99686.86;2259352;79;20953;-85
2022/10/13 01:35:21;;;;;;;45.35;25.50;;;;;;;1.99;100.00;99685.75;2257439;79;20977;-85
2022/10/13 01:38:22;;;;;;;44.15;24.90;;;;;;;1.97;100.00;99680.33;2257057;78;20962;-85
2022/10/13 01:41:23;;;;;;;40.65;24.05;;;;;;;1.91;100.00;99677.68;2257144;79;20976;-85
2022/10/13 01:44:24;;;;;;;38.55;23.67;;;;;;;1.88;100.00;99677.06;2257929;79;20957;-84
2022/10/13 01:47:25;;;;;;;38.30;23.67;;;;;;;1.89;100.00;99677.42;2257147;79;21631;-85
2022/10/13 01:50:25;;;;;;;34.80;21.87;;;;;;;1.88;100.00;99677.06;2257111;78;20980;-85
2022/10/13 01:53:26;;;;;;;37.53;22.60;;;;;;;1.86;100.00;99672.47;2257118;79;20957;-85
2022/10/13 01:56:27;;;;;;;46.48;24.32;;;;;;;1.86;100.00;99675.05;2257130;78;20969;-84
2022/10/13 01:59:28;;;;;;;41.25;22.10;;;;;;;1.83;100.00;99667.48;2256977;79;20956;-85
2022/10/13 02:02:29;;;;;;;43.58;22.87;;;;;;;1.83;100.00;99672.66;2257090;79;20992;-85
2022/10/13 02:05:30;;;;;;;40.50;22.22;;;;;;;1.80;100.00;99674.98;2257057;79;20973;-85
2022/10/13 02:08:31;;;;;;;35.90;22.40;;;;;;;1.76;100.00;99668.38;2257047;78;21071;-85
2022/10/13 02:11:31;;;;;;;39.70;22.07;;;;;;;1.71;100.00;99667.38;2256997;79;21559;-85
2022/10/13 02:14:32;;;;;;;41.98;22.52;;;;;;;1.70;100.00;99662.31;2256993;78;20957;-85
2022/10/13 02:17:33;;;;;;;48.63;21.50;;;;;;;1.69;100.00;99660.20;2257224;78;21016;-84
2022/10/13 02:20:33;;;;;;;42.98;22.58;;;;;;;1.60;100.00;99650.94;2257057;79;20977;-86
2022/10/13 02:23:34;;;;;;;44.93;21.95;;;;;;;1.53;100.00;99655.66;2256978;78;20981;-86
2022/10/13 02:26:35;;;;;;;43.05;21.85;;;;;;;1.50;100.00;99652.00;2222559;79;21567;-82
2022/10/13 02:29:36;;;;;;;41.88;21.87;;;;;;;1.47;100.00;99652.67;2225129;79;21053;-82
2022/10/13 02:32:36;;;;;;;41.48;22.40;;;;;;;1.45;100.00;99645.47;2224113;80;20957;-84
2022/10/13 02:35:37;;;;;;;39.13;22.02;;;;;;;1.42;100.00;99646.50;2222429;79;21028;-85
2022/10/13 02:38:38;;;;;;;41.08;24.52;;;;;;;1.41;100.00;99646.97;2222186;79;21045;-86
2022/10/13 02:41:39;;;;;;;34.23;21.15;;;;;;;1.46;100.00;99639.38;2222031;80;21024;-85
2022/10/13 02:44:40;;;;;;;38.50;21.50;;;;;;;1.47;100.00;99637.19;2219530;80;20977;-86
2022/10/13 02:47:41;;;;;;;37.93;21.75;;;;;;;1.50;100.00;99639.09;2222036;80;21107;-84
2022/10/13 02:50:41;;;;;;;37.48;24.32;;;;;;;1.50;100.00;99632.64;2222001;80;21036;-85
2022/10/13 02:53:42;;;;;;;40.75;21.60;;;;;;;1.46;100.00;99627.30;2221708;80;20961;-85
2022/10/13 02:56:43;;;;;;;36.65;22.82;;;;;;;1.46;100.00;99640.66;2221695;80;21005;-85
2022/10/13 02:59:44;;;;;;;38.70;22.42;;;;;;;1.46;100.00;99639.38;2221755;80;21112;-85
2022/10/13 03:02:44;;;;;;;36.05;20.32;;;;;;;1.43;100.00;99637.83;2222117;79;20969;-85
2022/10/13 03:05:45;;;;;;;35.92;18.30;;;;;;;1.44;100.00;99638.19;2215521;79;21029;-85
2022/10/13 03:08:46;;;;;;;35.78;19.85;;;;;;;1.41;100.00;99637.10;2220640;80;20996;-85
2022/10/13 03:11:47;;;;;;;32.67;19.42;;;;;;;1.40;100.00;99625.13;2192551;79;21056;-85
2022/10/13 03:14:47;;;;;;;36.53;21.00;;;;;;;1.43;100.00;99627.50;2183462;80;20999;-85
2022/10/13 03:17:48;;;;;;;30.90;19.82;;;;;;;1.46;100.00;99632.92;2197470;80;20969;-85
2022/10/13 03:20:49;;;;;;;36.53;19.32;;;;;;;1.48;100.00;99625.47;2183385;81;21040;-86
2022/10/13 03:23:50;;;;;;;38.35;19.70;;;;;;;1.51;100.00;99623.97;2190111;80;21019;-85
2022/10/13 03:26:50;;;;;;;37.17;20.62;;;;;;;1.53;100.00;99622.10;2227605;78;20942;-88
2022/10/13 03:29:51;;;;;;;244.62;104.60;;;;;;;1.54;100.00;99626.34;2186515;79;21095;-87
2022/10/13 03:32:52;;;;;;;164.40;72.22;;;;;;;1.51;100.00;99625.72;2229902;79;21517;-87
2022/10/13 03:35:52;;;;;;;99.77;47.60;;;;;;;1.52;100.00;99624.33;2266137;78;21015;-87
2022/10/13 03:38:53;;;;;;;83.67;39.70;;;;;;;1.51;100.00;99623.97;2266275;78;21016;-87
2022/10/13 03:41:53;;;;;;;92.97;43.10;;;;;;;1.52;100.00;99624.33;2266075;78;20950;-88
2022/10/13 03:44:54;;;;;;;90.85;43.20;;;;;;;1.55;100.00;99630.56;2238445;79;20934;-88
2022/10/13 03:47:55;;;;;;;82.10;41.65;;;;;;;1.56;100.00;99627.55;2224227;79;21116;-87
2022/10/13 03:50:56;;;;;;;72.92;36.60;;;;;;;1.54;100.00;99630.20;2224102;80;20965;-88
2022/10/13 03:53:56;;;;;;;67.82;34.18;;;;;;;1.51;100.00;99627.83;2224193;80;20965;-88
2022/10/13 03:56:57;;;;;;;76.28;35.68;;;;;;;1.47;100.00;99625.56;2225807;80;21001;-87
2022/10/13 03:59:58;;;;;;;67.80;34.45;;;;;;;1.42;100.00;99625.85;2141578;83;21538;-86
2022/10/13 04:02:59;;;;;;;70.90;36.03;;;;;;;1.39;100.00;99617.85;2130635;84;21624;-87
2022/10/13 04:06:00;;;;;;;60.63;32.85;;;;;;;1.34;100.00;99612.61;2141247;82;21041;-86
2022/10/13 04:09:01;;;;;;;58.80;28.83;;;;;;;1.30;100.00;99609.88;2143097;82;21647;-86
2022/10/13 04:12:02;;;;;;;69.10;32.40;;;;;;;1.30;100.00;99603.43;2141087;83;21038;-86
2022/10/13 04:15:03;;;;;;;61.85;29.32;;;;;;;1.30;100.00;99610.70;2143127;82;21002;-87
2022/10/13 04:18:04;;;;;;;51.85;28.07;;;;;;;1.31;100.00;99615.41;2141123;83;21014;-87
2022/10/13 04:21:04;;;;;;;39.73;24.27;;;;;;;1.31;100.00;99612.36;2151490;82;21014;-86
2022/10/13 04:24:05;;;;;;;49.63;24.05;;;;;;;1.35;100.00;99612.51;2150100;82;21073;-86
2022/10/13 04:27:06;;;;;;;32.15;20.92;;;;;;;1.39;100.00;99610.58;2125416;83;20986;-86
2022/10/13 04:30:07;;;;;;;44.93;27.22;;;;;;;1.43;100.00;99617.18;2124987;84;21082;-86
2022/10/13 04:33:07;;;;;;;39.10;21.10;;;;;;;1.45;100.00;99611.45;2125383;83;21521;-87
2022/10/13 04:36:08;;;;;;;51.28;23.70;;;;;;;1.45;100.00;99617.08;2125556;82;21526;-86
2022/10/13 04:39:09;;;;;;;50.50;24.07;;;;;;;1.45;100.00;99620.48;2125288;84;21505;-87
2022/10/13 04:42:09;;;;;;;45.55;25.77;;;;;;;1.41;100.00;99617.28;2159841;82;21007;-86
2022/10/13 04:45:10;;;;;;;47.65;25.60;;;;;;;1.40;100.00;99616.09;2161790;82;21014;-86
2022/10/13 04:48:11;;;;;;;40.60;23.30;;;;;;;1.38;100.00;99605.05;2162368;82;21061;-87
2022/10/13 04:51:12;;;;;;;39.03;21.52;;;;;;;1.37;100.00;99605.95;2161781;82;20978;-86
2022/10/13 04:54:13;;;;;;;45.20;22.90;;;;;;;1.31;100.00;99605.08;2162386;82;20964;-86
2022/10/13 04:57:13;;;;;;;59.77;29.07;;;;;;;1.28;100.00;99606.55;2162308;82;21565;-87
2022/10/13 05:00:14;;;;;;;77.55;32.98;;;;;;;1.25;100.00;99604.17;2162563;82;20983;-87
2022/10/13 05:03:15;;;;;;;63.92;28.20;;;;;;;1.17;100.00;99611.11;2160904;82;21022;-87
2022/10/13 05:06:16;;;;;;;56.55;27.05;;;;;;;1.13;100.00;99606.63;2125349;84;21662;-86
2022/10/13 05:09:16;;;;;;;55.70;27.00;;;;;;;1.17;100.00;99610.28;2137136;82;21014;-87
2022/10/13 05:12:17;;;;;;;55.55;27.10;;;;;;;1.25;100.00;99608.05;2162346;82;21034;-88
2022/10/13 05:15:18;;;;;;;46.90;22.98;;;;;;;1.31;100.00;99605.91;2162858;82;21027;-88
2022/10/13 05:18:18;;;;;;;52.05;21.85;;;;;;;1.38;100.00;99606.34;2162344;82;21022;-88
2022/10/13 05:21:19;;;;;;;50.08;22.70;;;;;;;1.49;100.00;99606.47;2162412;82;21018;-88
2022/10/13 05:24:29;;;;;;;39.95;22.42;;;;;;;1.59;100.00;99606.22;2130865;82;21479;-87
2022/10/13 05:27:23;;;;;;;38.70;19.50;;;;;;;1.73;100.00;99605.30;2163814;81;21061;-87
2022/10/13 05:30:23;;;;;;;33.73;18.75;;;;;;;1.86;100.00;99601.45;2239949;78;21472;-88
2022/10/13 05:33:24;;;;;;;35.35;18.55;;;;;;;1.96;100.00;99598.61;2238811;78;21064;-87
2022/10/13 05:36:24;;;;;;;29.70;17.70;;;;;;;2.09;100.00;99607.63;2215018;80;21018;-88
2022/10/13 05:39:25;;;;;;;32.33;19.15;;;;;;;2.21;100.00;99607.64;2194079;81;21582;-88
2022/10/13 05:42:26;;;;;;;33.08;18.70;;;;;;;2.38;100.00;99616.83;2244387;78;20902;-87
2022/10/13 05:45:27;;;;;;;28.65;18.05;;;;;;;2.55;100.00;99615.64;2179450;82;21036;-87
2022/10/13 05:48:27;;;;;;;33.13;21.02;;;;;;;2.72;100.00;99616.58;2204191;81;21501;-88
2022/10/13 05:51:28;;;;;;;53.25;26.40;;;;;;;2.89;100.00;99615.87;2204387;80;21504;-86
2022/10/13 05:54:29;;;;;;;37.23;22.40;;;;;;;3.04;100.00;99627.73;2204373;81;21481;-87
2022/10/13 05:57:30;;;;;;;49.80;25.10;;;;;;;3.16;100.00;99622.95;2150202;81;21037;-84
2022/10/13 06:00:31;;;;;;;55.40;28.32;;;;;;;3.31;100.00;99623.62;2141410;82;21465;-85
2022/10/13 06:03:31;;;;;;;52.85;30.85;;;;;;;3.51;100.00;99624.28;2138732;82;21045;-91
2022/10/13 06:06:32;;;;;;;43.87;26.52;;;;;;;3.68;100.00;99624.34;2161470;82;21054;-84
2022/10/13 06:09:37;;;;;;;54.13;29.90;;;;;;;3.81;100.00;99632.02;2175783;82;21075;-86
2022/10/13 06:12:35;;;;;;;65.50;28.95;;;;;;;3.94;100.00;99626.29;2216691;80;21018;-87
2022/10/13 06:15:36;;;;;;;57.48;29.07;;;;;;;4.10;100.00;99620.75;2148487;83;20982;-91
2022/10/13 06:18:37;;;;;;;47.78;27.30;;;;;;;4.23;100.00;99621.48;2195063;80;20998;-91
2022/10/13 06:21:37;;;;;;;43.05;24.85;;;;;;;4.40;100.00;99614.55;2193500;81;21014;-91
2022/10/13 06:24:38;;;;;;;27.37;17.60;;;;;;;4.56;100.00;99608.97;2193524;80;21054;-92
2022/10/13 06:27:39;;;;;;;27.80;14.33;;;;;;;4.72;100.00;99609.42;2232669;79;21499;-91
2022/10/13 06:30:41;;;;;;;27.80;16.80;;;;;;;4.89;100.00;99610.70;2229056;79;20926;-85
2022/10/13 06:33:43;;;;;;;31.57;17.50;;;;;;;5.04;100.00;99615.16;2259888;78;20973;-85
2022/10/13 06:36:43;;;;;;;27.30;16.35;;;;;;;5.22;100.00;99612.86;2257756;79;21059;-84
2022/10/13 06:39:44;;;;;;;25.77;12.07;;;;;;;5.40;100.00;99616.56;2260036;79;20972;-84
2022/10/13 06:42:45;;;;;;;24.25;13.03;;;;;;;5.57;100.00;99612.56;2225418;79;20996;-90
2022/10/13 06:45:45;;;;;;;29.42;17.90;;;;;;;5.71;100.00;99613.09;2219160;79;21409;-88
2022/10/13 06:48:46;;;;;;;24.32;16.12;;;;;;;5.84;100.00;99612.06;2256778;79;21548;-90
2022/10/13 06:51:47;;;;;;;28.07;14.43;;;;;;;5.97;100.00;99607.06;2257442;79;21024;-86
2022/10/13 06:54:48;;;;;;;22.60;13.75;;;;;;;6.09;100.00;99606.98;2257222;79;20949;-90
2022/10/13 06:57:48;;;;;;;24.18;14.35;;;;;;;6.19;100.00;99599.57;2230570;79;20980;-89
2022/10/13 07:00:49;;;;;;;19.57;12.98;;;;;;;6.30;100.00;99602.55;2217182;80;21032;-88
2022/10/13 07:03:50;;;;;;;21.35;11.93;;;;;;;6.44;100.00;99602.22;2217421;80;21429;-89
2022/10/13 07:06:51;;;;;;;19.62;11.08;;;;;;;6.58;100.00;99596.28;2245141;79;21488;-89
2022/10/13 07:09:53;;;;;;;24.43;12.13;;;;;;;6.73;100.00;99593.19;2257072;79;21148;-90
2022/10/13 07:12:53;;;;;;;23.98;12.07;;;;;;;6.87;100.00;99593.78;2256973;78;21035;-88
2022/10/13 07:15:54;;;;;;;19.98;11.78;;;;;;;7.01;100.00;99587.69;2254561;78;21457;-89
2022/10/13 07:18:55;;;;;;;22.07;11.70;;;;;;;7.11;100.00;99592.42;2257128;79;21000;-88
2022/10/13 07:21:56;;;;;;;22.25;12.18;;;;;;;7.22;100.00;99588.03;2256964;78;21004;-88
2022/10/13 07:24:56;;;;;;;21.77;12.88;;;;;;;7.33;100.00;99586.62;2256159;78;20982;-89
2022/10/13 07:27:57;;;;;;;18.67;12.73;;;;;;;7.47;100.00;99584.06;2217576;79;21564;-85
2022/10/13 07:30:58;;;;;;;20.92;12.70;;;;;;;7.58;100.00;99585.20;2219113;79;20942;-86
2022/10/13 07:33:58;;;;;;;18.37;11.97;;;;;;;7.70;100.00;99586.72;2223698;80;20947;-85
2022/10/13 07:36:59;;;;;;;21.75;11.15;;;;;;;7.78;100.00;99582.94;2224921;80;20988;-84
2022/10/13 07:40:00;;;;;;;24.77;14.55;;;;;;;7.91;100.00;99585.23;2201535;79;20937;-86
2022/10/13 07:43:01;;;;;;;20.10;14.18;;;;;;;8.01;100.00;99579.98;2181406;82;21007;-88
2022/10/13 07:46:05;;;;;;;17.62;11.95;;;;;;;8.10;100.00;99574.73;2178981;82;20996;-87
2022/10/13 07:49:06;;;;;;;20.55;12.20;;;;;;;8.21;100.00;99571.12;2179157;82;21090;-85
2022/10/13 07:52:06;;;;;;;18.05;12.15;;;;;;;8.34;100.00;99562.98;2179232;82;21609;-87
2022/10/13 07:55:07;;;;;;;21.95;12.45;;;;;;;8.43;100.00;99561.66;2178817;82;21022;-88
2022/10/13 07:58:08;;;;;;;18.60;11.18;;;;;;;8.57;100.00;99559.52;2182916;80;20985;-90
2022/10/13 08:01:09;;;;;;;18.42;11.40;;;;;;;8.66;100.00;99565.16;2183414;81;21532;-88
2022/10/13 08:04:10;;;;;;;22.65;13.30;;;;;;;8.74;100.00;99561.34;2207291;80;20913;-88
2022/10/13 08:07:10;;;;;;;18.62;12.00;;;;;;;8.79;100.00;99557.81;2222365;80;20973;-88
2022/10/13 08:10:11;;;;;;;23.40;11.97;;;;;;;8.88;100.00;99560.03;2222141;80;21020;-88
2022/10/13 08:13:12;;;;;;;19.35;11.55;;;;;;;8.95;100.00;99557.14;2222271;80;20961;-89
2022/10/13 08:16:13;;;;;;;20.82;12.80;;;;;;;9.00;100.00;99554.42;2222375;80;20997;-88
2022/10/13 08:19:14;;;;;;;19.50;12.33;;;;;;;9.09;100.00;99551.41;2194473;79;20965;-90
2022/10/13 08:22:14;;;;;;;22.27;11.88;;;;;;;9.21;100.00;99550.69;2183748;81;20957;-89
2022/10/13 08:25:15;;;;;;;18.92;11.35;;;;;;;9.32;100.00;99549.95;2183840;80;20992;-90
2022/10/13 08:28:16;;;;;;;18.35;10.80;;;;;;;9.44;100.00;99542.72;2210399;78;21041;-93
2022/10/13 08:31:16;;;;;;;20.92;11.78;;;;;;;9.53;100.00;99540.50;2214929;79;21067;-91
2022/10/13 08:34:17;;;;;;;14.25;9.63;;;;;;;9.65;100.00;99541.88;2245292;78;21512;-94
2022/10/13 08:37:18;;;;;;;16.30;10.18;;;;;;;9.77;100.00;99532.47;2194558;80;21005;-88
2022/10/13 08:40:18;;;;;;;15.05;10.28;;;;;;;9.83;100.00;99528.75;2188494;81;21256;-83
2022/10/13 08:43:19;;;;;;;19.02;11.20;;;;;;;9.90;100.00;99535.50;2190459;79;20980;-86
2022/10/13 08:46:20;;;;;;;16.02;9.68;;;;;;;10.00;100.00;99532.77;2205686;80;20953;-93
2022/10/13 08:49:20;;;;;;;19.27;10.32;;;;;;;10.08;100.00;99527.09;2186870;81;21001;-89
2022/10/13 08:52:21;;;;;;;12.58;10.05;;;;;;;10.13;100.00;99531.84;2185526;81;20961;-91
2022/10/13 08:55:22;;;;;;;19.48;12.15;;;;;;;10.19;100.00;99526.81;2184009;80;20945;-96
2022/10/13 08:58:23;;;;;;;17.87;10.60;;;;;;;10.28;100.00;99522.46;2184128;81;20985;-95
2022/10/13 09:01:24;;;;;;;16.17;11.57;;;;;;;10.29;100.00;99519.35;2184520;81;21008;-96
2022/10/13 09:04:24;;;;;;;21.02;12.88;;;;;;;10.33;100.00;99519.36;2184363;81;21340;-95
2022/10/13 09:07:26;;;;;;;20.30;12.50;;;;;;;10.38;100.00;99524.46;2185653;81;20997;-94
2022/10/13 09:10:26;;;;;;;16.35;11.00;;;;;;;10.48;100.00;99524.33;2185306;81;21477;-94
2022/10/13 09:13:27;;;;;;;15.78;10.10;;;;;;;10.58;100.00;99525.50;2185081;81;21012;-94
2022/10/13 09:16:28;;;;;;;18.07;11.78;;;;;;;10.68;100.00;99518.31;2184964;80;20993;-95
2022/10/13 09:19:29;;;;;;;23.57;11.25;;;;;;;10.73;100.00;99525.22;2184498;81;21035;-96
2022/10/13 09:22:29;;;;;;;20.70;11.60;;;;;;;10.77;100.00;99522.59;2184564;81;20972;-96
2022/10/13 09:25:30;;;;;;;19.70;11.43;;;;;;;10.81;100.00;99517.38;2184920;80;20949;-95
2022/10/13 09:28:31;;;;;;;16.17;10.68;;;;;;;10.86;100.00;99518.19;2188487;81;21093;-94
2022/10/13 09:31:32;;;;;;;18.92;10.80;;;;;;;10.94;100.00;99523.44;2143097;83;20990;-94
2022/10/13 09:34:33;;;;;;;18.25;12.15;;;;;;;11.01;100.00;99521.33;2123776;83;21022;-95
2022/10/13 09:37:34;;;;;;;19.73;12.78;;;;;;;11.02;100.00;99508.55;2138627;80;20958;-95
2022/10/13 09:40:35;;;;;;;21.37;11.20;;;;;;;11.17;100.00;99521.02;2146149;80;20989;-94
2022/10/13 09:43:35;;;;;;;16.23;10.65;;;;;;;11.23;100.00;99514.60;2146808;80;20969;-94
2022/10/13 09:46:36;;;;;;;22.85;12.10;;;;;;;11.30;100.00;99509.53;2146692;80;20992;-94
2022/10/13 09:49:37;;;;;;;19.92;11.88;;;;;;;11.42;100.00;99508.70;2146706;82;20993;-92
2022/10/13 09:52:38;;;;;;;16.95;11.30;;;;;;;11.51;100.00;99503.77;2146546;80;21001;-94
2022/10/13 09:55:38;;;;;;;17.75;12.70;;;;;;;11.63;100.00;99504.59;2145366;83;20960;-94
2022/10/13 09:58:39;;;;;;;14.18;12.07;;;;;;;11.71;100.00;99499.00;2142431;83;21024;-95
2022/10/13 10:01:40;;;;;;;20.80;10.93;;;;;;;11.79;100.00;99498.95;2142943;83;21488;-95
2022/10/13 10:04:42;;;;;;;17.62;10.63;;;;;;;11.85;100.00;99496.52;2143479;83;20992;-95
2022/10/13 10:07:43;;;;;;;22.58;11.88;;;;;;;11.91;100.00;99487.16;2143074;82;21000;-95
2022/10/13 10:10:46;;;;;;;18.77;10.10;;;;;;;11.99;100.00;99479.77;2142689;83;21025;-96
2022/10/13 10:13:46;;;;;;;19.00;10.58;;;;;;;12.04;100.00;99479.56;2143085;82;20980;-95
2022/10/13 10:16:47;;;;;;;14.80;10.30;;;;;;;12.10;100.00;99476.76;2142485;83;21032;-94
2022/10/13 10:19:48;;;;;;;15.18;10.13;;;;;;;12.14;100.00;99473.61;2142418;83;20953;-95
2022/10/13 10:22:48;;;;;;;21.73;13.53;;;;;;;12.18;100.00;99472.30;2142541;83;20961;-95
2022/10/13 10:25:50;;;;;;;14.60;11.08;;;;;;;12.22;100.00;99468.81;2145123;82;21059;-95
2022/10/13 10:28:51;;;;;;;15.32;10.80;;;;;;;12.26;100.00;99466.19;2218105;80;21020;-95
2022/10/13 10:31:52;;;;;;;15.58;10.85;;;;;;;12.27;100.00;99465.20;2217317;80;21429;-96
2022/10/13 10:34:53;;;;;;;16.57;11.53;;;;;;;12.28;100.00;99462.89;2217560;80;20961;-96
2022/10/13 10:37:53;;;;;;;18.92;10.60;;;;;;;12.34;100.00;99464.80;2217539;80;20988;-95
2022/10/13 10:40:54;;;;;;;15.43;10.88;;;;;;;12.39;100.00;99461.18;2218175;80;20938;-95
2022/10/13 10:43:55;;;;;;;13.20;11.65;;;;;;;12.43;100.00;99451.95;2221161;79;20969;-94
2022/10/13 10:46:56;;;;;;;19.80;10.98;;;;;;;12.51;100.00;99458.97;2221133;79;20973;-92
2022/10/13 10:49:57;;;;;;;15.00;11.95;;;;;;;12.52;100.00;99462.73;2220854;80;20969;-94
2022/10/13 10:52:57;;;;;;;16.30;11.65;;;;;;;12.55;100.00;99455.02;2220511;80;20981;-95
2022/10/13 10:55:58;;;;;;;17.52;12.18;;;;;;;12.61;100.00;99456.93;2217838;80;20993;-94
2022/10/13 10:58:59;;;;;;;16.95;11.78;;;;;;;12.67;100.00;99452.80;2217652;80;21000;-96
2022/10/13 11:01:59;;;;;;;19.23;11.43;;;;;;;12.70;100.00;99449.81;2217706;80;21036;-94
2022/10/13 11:05:00;;;;;;;14.50;10.23;;;;;;;12.74;100.00;99447.98;2218003;80;21489;-94
2022/10/13 11:08:01;;;;;;;19.82;13.20;;;;;;;12.77;100.00;99438.92;2217495;80;21418;-93
2022/10/13 11:11:01;;;;;;;19.15;11.22;;;;;;;12.81;100.00;99431.03;2217353;80;20973;-95
2022/10/13 11:14:02;;;;;;;19.92;11.40;;;;;;;12.81;100.00;99431.84;2217371;80;20961;-95
2022/10/13 11:17:03;;;;;;;12.43;9.08;;;;;;;12.84;100.00;99427.22;2217060;80;20996;-93
2022/10/13 11:20:04;;;;;;;16.23;9.55;;;;;;;12.87;100.00;99422.92;2216913;80;21024;-94
2022/10/13 11:23:04;;;;;;;15.13;9.23;;;;;;;12.89;100.00;99427.00;2216987;80;20925;-94
2022/10/13 11:26:05;;;;;;;16.10;10.05;;;;;;;12.88;100.00;99421.42;2214845;80;20984;-94
2022/10/13 11:29:06;;;;;;;13.65;9.18;;;;;;;12.87;100.00;99415.85;2183471;81;20941;-95
2022/10/13 11:32:06;;;;;;;13.15;8.78;;;;;;;12.89;100.00;99408.59;2183686;80;21543;-96
2022/10/13 11:35:08;;;;;;;19.32;9.38;;;;;;;12.91;100.00;99402.69;2184151;81;21005;-94
2022/10/13 11:38:08;;;;;;;11.40;8.45;;;;;;;12.91;100.00;99398.75;2185323;81;20973;-94
2022/10/13 11:41:09;;;;;;;13.00;9.13;;;;;;;12.91;100.00;99391.36;2186893;81;20984;-95
2022/10/13 11:44:10;;;;;;;13.22;10.53;;;;;;;12.95;100.00;99387.38;2187685;79;21016;-95
2022/10/13 11:47:11;;;;;;;14.10;10.13;;;;;;;13.01;100.00;99388.80;2187758;79;20980;-96
2022/10/13 11:50:12;;;;;;;15.98;10.18;;;;;;;13.02;100.00;99380.41;2188565;79;21031;-96
2022/10/13 11:53:12;;;;;;;15.28;9.83;;;;;;;13.06;100.00;99386.43;2188430;81;20953;-96
2022/10/13 11:56:13;;;;;;;14.63;8.88;;;;;;;13.06;100.00;99383.80;2188330;80;21012;-96
2022/10/13 11:59:14;;;;;;;14.55;9.48;;;;;;;13.07;100.00;99378.05;2186513;81;20953;-96
2022/10/13 12:02:17;;;;;;;16.10;10.18;;;;;;;13.07;100.00;99371.47;2184440;81;20973;-94
2022/10/13 12:05:18;;;;;;;11.45;8.45;;;;;;;13.10;100.00;99368.50;2185623;81;21495;-95
2022/10/13 12:08:19;;;;;;;16.42;8.83;;;;;;;13.12;100.00;99365.69;2185473;81;21000;-96
2022/10/13 12:11:20;;;;;;;12.75;9.13;;;;;;;13.13;100.00;99361.56;2184644;81;21452;-96
2022/10/13 12:14:21;;;;;;;12.07;9.33;;;;;;;13.15;100.00;99361.37;2184882;80;21024;-96
2022/10/13 12:17:22;;;;;;;14.73;9.68;;;;;;;13.16;100.00;99361.19;2184940;81;21576;-95
2022/10/13 12:20:23;;;;;;;13.90;9.83;;;;;;;13.18;100.00;99363.16;2184405;81;20980;-95
2022/10/13 12:23:24;;;;;;;19.45;10.05;;;;;;;13.20;100.00;99363.83;2184972;81;21008;-95
2022/10/13 12:26:25;;;;;;;19.40;11.68;;;;;;;13.22;100.00;99359.20;2184775;80;21539;-96
2022/10/13 12:29:26;;;;;;;15.30;9.25;;;;;;;13.25;100.00;99351.44;2184871;81;20988;-95
2022/10/13 12:32:27;;;;;;;14.73;9.58;;;;;;;13.28;100.00;99342.70;2185198;81;21241;-95
2022/10/13 12:35:28;;;;;;;11.33;8.98;;;;;;;13.29;100.00;99349.59;2184943;81;21480;-96
2022/10/13 12:38:28;;;;;;;15.05;10.38;;;;;;;13.29;100.00;99346.96;2184793;81;20945;-95
2022/10/13 12:41:29;;;;;;;12.37;8.60;;;;;;;13.29;100.00;99339.08;2184267;81;20972;-95
2022/10/13 12:44:30;;;;;;;12.33;9.28;;;;;;;13.30;100.00;99339.39;2186451;79;20966;-96
2022/10/13 12:47:31;;;;;;;11.22;8.98;;;;;;;13.31;100.00;99337.08;2187846;79;21016;-93
2022/10/13 12:50:31;;;;;;;16.12;9.75;;;;;;;13.30;100.00;99335.45;2188139;79;20969;-94
2022/10/13 12:53:32;;;;;;;13.13;9.45;;;;;;;13.29;100.00;99331.19;2188645;79;20937;-94
2022/10/13 12:56:33;;;;;;;15.00;9.65;;;;;;;13.30;100.00;99339.39;2186470;79;21488;-95
2022/10/13 12:59:33;;;;;;;12.98;9.20;;;;;;;13.31;100.00;99337.08;2183928;81;21012;-96
2022/10/13 13:02:34;;;;;;;14.40;9.40;;;;;;;13.39;100.00;99329.59;2184033;81;20937;-95
2022/10/13 13:05:36;;;;;;;17.07;10.90;;;;;;;13.42;100.00;99328.41;2183583;81;21088;-95
2022/10/13 13:08:36;;;;;;;13.55;10.08;;;;;;;13.41;100.00;99325.45;2183830;80;21020;-95
2022/10/13 13:11:37;;;;;;;11.65;9.13;;;;;;;13.46;100.00;99322.61;2183886;81;21549;-95
2022/10/13 13:14:38;;;;;;;11.18;9.10;;;;;;;13.48;100.00;99325.05;2183768;81;20999;-95
2022/10/13 13:17:39;;;;;;;13.20;8.30;;;;;;;13.46;100.00;99321.30;2183811;81;20964;-94
2022/10/13 13:20:39;;;;;;;12.05;9.25;;;;;;;13.44;100.00;99320.67;2184410;81;21028;-93
2022/10/13 13:23:40;;;;;;;16.12;9.13;;;;;;;13.53;100.00;99313.46;2184201;81;20937;-89
2022/10/13 13:26:41;;;;;;;17.77;10.48;;;;;;;13.62;100.00;99313.20;2184129;80;21055;-91
2022/10/13 13:29:41;;;;;;;13.83;9.30;;;;;;;13.62;100.00;99307.94;2187975;81;21069;-93
2022/10/13 13:32:42;;;;;;;15.50;10.05;;;;;;;13.71;100.00;99310.44;2187723;80;21465;-93
2022/10/13 13:35:43;;;;;;;12.03;8.80;;;;;;;13.74;100.00;99305.64;2187607;81;21041;-92
2022/10/13 13:38:43;;;;;;;12.20;9.33;;;;;;;13.73;100.00;99309.77;2187937;81;20958;-94
2022/10/13 13:41:44;;;;;;;11.68;8.60;;;;;;;13.73;100.00;99305.83;2188786;81;20946;-91
2022/10/13 13:44:45;;;;;;;11.70;8.43;;;;;;;13.74;100.00;99309.59;2190980;81;21012;-90
2022/10/13 13:47:46;;;;;;;17.35;10.15;;;;;;;13.77;100.00;99303.94;2191843;81;21001;-92